Time;durP1;ratioP1;P1;durP2;ratioP2;P2;SDS_P1;SDS_P2;PMS_P1;PMS_P2;Temp;Humidity;BMP_temperature;BMP_pressure;BME280_temperature;BME280_humidity;BME280_pressure;Samples;Min_cycle;Max_cycle;Signal;HPM_P1;HPM_P2
2021/09/27 00:01:14;;;;;;;37.75;29.05;;;16.40;88.20;;;;;;5006470;28;20026;-72
2021/09/27 00:03:40;;;;;;;37.05;28.88;;;16.40;88.20;;;;;;5004065;28;20237;-76
2021/09/27 00:06:07;;;;;;;38.85;30.20;;;16.40;88.30;;;;;;5006450;28;20087;-73
2021/09/27 00:08:33;;;;;;;36.03;29.42;;;16.40;88.40;;;;;;5008206;28;20022;-76
2021/09/27 00:11:03;;;;;;;36.65;28.90;;;16.40;88.50;;;;;;5007522;28;20023;-74
2021/09/27 00:13:33;;;;;;;38.83;30.73;;;16.40;88.40;;;;;;5006132;28;20068;-76
2021/09/27 00:15:59;;;;;;;36.03;28.90;;;16.40;88.40;;;;;;4997514;28;20062;-75
2021/09/27 00:18:25;;;;;;;37.13;28.88;;;16.30;88.50;;;;;;5003623;28;20030;-74
2021/09/27 00:20:54;;;;;;;42.13;29.98;;;16.30;88.50;;;;;;5003496;28;20027;-76
2021/09/27 00:23:21;;;;;;;34.17;28.95;;;16.30;88.70;;;;;;4998952;28;20029;-74
2021/09/27 00:25:47;;;;;;;34.80;27.25;;;16.30;88.80;;;;;;5003209;28;20037;-75
2021/09/27 00:28:13;;;;;;;34.03;28.60;;;16.30;89.00;;;;;;5018204;28;20018;-76
2021/09/27 00:30:39;;;;;;;33.33;26.88;;;16.30;88.90;;;;;;5020714;28;20098;-75
2021/09/27 00:33:05;;;;;;;37.63;27.70;;;16.30;89.10;;;;;;5016871;28;20037;-73
2021/09/27 00:35:34;;;;;;;35.08;27.52;;;16.30;89.20;;;;;;5018113;28;20053;-73
2021/09/27 00:38:00;;;;;;;35.67;27.00;;;16.30;89.20;;;;;;5030192;28;20064;-74
2021/09/27 00:40:30;;;;;;;31.88;25.52;;;16.30;89.30;;;;;;5026034;28;21552;-71
2021/09/27 00:42:57;;;;;;;31.77;25.08;;;16.30;89.40;;;;;;5030718;28;20034;-74
2021/09/27 00:45:27;;;;;;;31.90;25.70;;;16.30;89.40;;;;;;5029661;28;20014;-74
2021/09/27 00:47:52;;;;;;;31.90;24.98;;;16.30;89.30;;;;;;5031511;28;20026;-74
2021/09/27 00:50:22;;;;;;;31.13;25.30;;;16.20;89.30;;;;;;5033047;28;20090;-72
2021/09/27 00:52:48;;;;;;;29.00;24.23;;;16.20;89.40;;;;;;5036018;28;20037;-75
2021/09/27 00:55:19;;;;;;;30.38;24.25;;;16.10;89.60;;;;;;5035365;28;20037;-75
2021/09/27 00:57:45;;;;;;;30.13;23.38;;;16.20;89.70;;;;;;5019504;28;21447;-74
2021/09/27 01:00:15;;;;;;;27.73;23.75;;;16.10;89.70;;;;;;5014487;28;20024;-75
2021/09/27 01:02:41;;;;;;;28.90;22.67;;;16.10;89.80;;;;;;5010944;28;20030;-71
2021/09/27 01:05:09;;;;;;;31.77;23.50;;;16.10;89.80;;;;;;5010681;28;20049;-74
2021/09/27 01:07:46;;;;;;;33.67;23.38;;;16.10;89.80;;;;;;5013254;28;20014;-74
2021/09/27 01:10:30;;;;;;;35.03;25.85;;;16.10;89.70;;;;;;5006974;28;20053;-72
2021/09/27 01:13:23;;;;;;;30.75;22.98;;;16.10;89.70;;;;;;5013256;28;20046;-73
2021/09/27 01:16:14;;;;;;;28.25;23.10;;;16.10;89.80;;;;;;5010830;28;20046;-77
2021/09/27 01:18:50;;;;;;;31.73;23.23;;;16.10;89.90;;;;;;5009692;28;20030;-75
2021/09/27 01:21:41;;;;;;;28.98;23.60;;;16.00;89.80;;;;;;5011901;28;20957;-76
2021/09/27 01:24:25;;;;;;;29.15;22.33;;;16.00;89.90;;;;;;5013690;28;20025;-75
2021/09/27 01:27:24;;;;;;;29.33;23.95;;;16.00;89.80;;;;;;5009016;28;20030;-76
2021/09/27 01:30:16;;;;;;;27.02;22.08;;;16.00;89.80;;;;;;5012747;28;20029;-76
2021/09/27 01:32:55;;;;;;;25.75;21.17;;;16.00;89.70;;;;;;5028180;28;20029;-76
2021/09/27 01:35:49;;;;;;;31.27;23.40;;;15.90;89.70;;;;;;5028382;28;20049;-73
2021/09/27 01:38:26;;;;;;;29.48;21.77;;;15.90;89.80;;;;;;5031208;28;20018;-76
2021/09/27 01:41:16;;;;;;;28.35;22.67;;;15.80;89.90;;;;;;5039210;28;20028;-75
2021/09/27 01:43:58;;;;;;;26.05;22.77;;;15.90;89.80;;;;;;5027931;28;20018;-72
2021/09/27 01:46:50;;;;;;;27.25;22.15;;;15.90;89.80;;;;;;5021492;28;20018;-76
2021/09/27 01:49:19;;;;;;;30.02;24.08;;;15.90;89.70;;;;;;5029082;28;20020;-76
2021/09/27 01:51:52;;;;;;;27.83;21.15;;;15.80;89.70;;;;;;5034157;28;20045;-75
2021/09/27 01:54:48;;;;;;;26.27;21.92;;;15.90;89.70;;;;;;5023770;28;20029;-74
2021/09/27 01:57:22;;;;;;;25.95;20.38;;;15.80;89.80;;;;;;5014884;28;20035;-73
2021/09/27 02:00:00;;;;;;;26.50;21.15;;;15.90;89.70;;;;;;5003176;28;20107;-72
2021/09/27 02:02:31;;;;;;;25.90;21.25;;;15.80;89.70;;;;;;5012599;28;20167;-74
2021/09/27 02:05:23;;;;;;;23.05;19.63;;;15.80;89.80;;;;;;5017788;28;20014;-72
2021/09/27 02:07:53;;;;;;;25.35;20.23;;;15.80;89.70;;;;;;5012838;28;20026;-75
2021/09/27 02:10:28;;;;;;;25.63;21.13;;;15.80;89.70;;;;;;5008635;28;20058;-72
2021/09/27 02:13:13;;;;;;;27.20;22.20;;;15.80;89.70;;;;;;5011945;28;20045;-74
2021/09/27 02:15:46;;;;;;;23.55;19.65;;;15.90;89.70;;;;;;5009466;28;20066;-75
2021/09/27 02:18:27;;;;;;;25.75;21.13;;;15.90;89.60;;;;;;5007065;28;20038;-75
2021/09/27 02:21:02;;;;;;;24.90;20.63;;;15.90;89.50;;;;;;5006103;28;20049;-76
2021/09/27 02:23:47;;;;;;;26.25;22.50;;;15.90;89.50;;;;;;5006236;28;20017;-76
2021/09/27 02:26:14;;;;;;;29.30;23.33;;;16.00;89.60;;;;;;5018408;28;20042;-76
2021/09/27 02:28:40;;;;;;;28.17;21.52;;;16.00;89.60;;;;;;5008622;28;20029;-72
2021/09/27 02:31:27;;;;;;;26.88;21.00;;;15.90;89.50;;;;;;5008559;28;20036;-74
2021/09/27 02:34:18;;;;;;;29.80;23.55;;;16.00;89.50;;;;;;5006726;28;20026;-76
2021/09/27 02:36:53;;;;;;;30.70;23.48;;;16.00;89.50;;;;;;5003124;28;20053;-75
2021/09/27 02:39:41;;;;;;;;;;;16.00;89.50;;;;;;5010302;28;20038;-71
2021/09/27 02:42:23;;;;;;;28.67;22.58;;;16.10;89.70;;;;;;5008691;28;19910;-75
2021/09/27 02:44:49;;;;;;;29.55;24.17;;;16.10;89.90;;;;;;5008939;28;20041;-77
2021/09/27 02:47:21;;;;;;;30.65;24.85;;;16.00;89.90;;;;;;5008737;28;20033;-77
2021/09/27 02:49:47;;;;;;;29.98;24.95;;;16.10;89.80;;;;;;5013350;28;20017;-74
2021/09/27 02:52:18;;;;;;;29.52;24.58;;;16.10;89.70;;;;;;5011401;28;20054;-77
2021/09/27 02:54:56;;;;;;;32.63;26.10;;;16.10;89.50;;;;;;5017848;28;20038;-76
2021/09/27 02:57:40;;;;;;;29.75;25.30;;;16.10;89.60;;;;;;5011105;28;20023;-74
2021/09/27 03:00:20;;;;;;;31.55;26.65;;;16.10;89.50;;;;;;5005180;28;20049;-75
2021/09/27 03:03:23;;;;;;;30.63;25.08;;;16.10;89.50;;;;;;5006192;28;20094;-71
2021/09/27 03:06:07;;;;;;;32.63;25.27;;;16.10;89.60;;;;;;5023639;28;20034;-76
2021/09/27 03:08:54;;;;;;;33.03;26.42;;;16.10;89.80;;;;;;5013578;28;20019;-75
2021/09/27 03:11:29;;;;;;;33.88;26.75;;;16.00;89.80;;;;;;5006475;28;20022;-71
2021/09/27 03:14:13;;;;;;;31.67;25.75;;;16.00;89.90;;;;;;5008711;28;20073;-73
2021/09/27 03:16:51;;;;;;;33.17;24.48;;;16.00;89.90;;;;;;5004610;28;20054;-75
2021/09/27 03:19:54;;;;;;;32.33;25.75;;;16.00;90.00;;;;;;5009881;28;20027;-75
2021/09/27 03:22:35;;;;;;;31.88;24.70;;;16.00;90.20;;;;;;5005975;28;20127;-71
2021/09/27 03:25:26;;;;;;;29.77;23.98;;;16.00;90.40;;;;;;5007445;28;20107;-71
2021/09/27 03:28:16;;;;;;;31.73;25.58;;;16.00;90.50;;;;;;5005002;28;20073;-75
2021/09/27 03:31:36;;;;;;;31.77;25.42;;;16.10;90.60;;;;;;4999716;28;20041;-77
2021/09/27 03:34:37;;;;;;;37.03;27.27;;;16.10;91.00;;;;;;5004354;28;20042;-72
2021/09/27 03:37:54;;;;;;;36.67;28.48;;;16.20;91.20;;;;;;4979001;28;20098;-75
2021/09/27 03:40:52;;;;;;;41.58;30.15;;;16.30;91.20;;;;;;4998482;28;20038;-71
2021/09/27 03:43:39;;;;;;;42.70;30.52;;;16.30;91.40;;;;;;4998527;28;20038;-75
2021/09/27 03:46:17;;;;;;;44.47;30.45;;;16.40;91.40;;;;;;5014932;28;20057;-75
2021/09/27 03:49:13;;;;;;;49.80;33.70;;;16.30;91.40;;;;;;5019196;28;20049;-75
2021/09/27 03:52:14;;;;;;;51.33;32.58;;;16.40;91.60;;;;;;5020338;28;20084;-74
2021/09/27 03:54:55;;;;;;;50.08;33.15;;;16.40;91.70;;;;;;5021611;28;20052;-74
2021/09/27 03:57:33;;;;;;;56.33;35.45;;;16.40;92.00;;;;;;5027833;28;20049;-72
2021/09/27 04:00:07;;;;;;;53.83;34.70;;;16.40;92.00;;;;;;5021605;28;20034;-76
2021/09/27 04:02:43;;;;;;;54.53;35.83;;;16.50;92.00;;;;;;5024858;28;20013;-75
2021/09/27 04:05:31;;;;;;;58.92;34.85;;;16.50;92.00;;;;;;5015005;28;20038;-73
2021/09/27 04:08:18;;;;;;;56.80;36.08;;;16.50;92.20;;;;;;5006068;28;20026;-75
2021/09/27 04:10:52;;;;;;;53.83;35.95;;;16.60;92.20;;;;;;4998146;28;20046;-75
2021/09/27 04:13:34;;;;;;;55.72;35.72;;;16.60;92.20;;;;;;4997952;28;20101;-76
2021/09/27 04:16:23;;;;;;;58.97;38.35;;;16.60;92.10;;;;;;4997273;28;20111;-75
2021/09/27 04:19:05;;;;;;;59.30;39.28;;;16.60;92.10;;;;;;4998993;28;20026;-74
2021/09/27 04:21:50;;;;;;;62.22;41.28;;;16.60;92.10;;;;;;4998967;28;20134;-75
2021/09/27 04:24:48;;;;;;;;;;;16.70;92.10;;;;;;4996667;28;20039;-75
2021/09/27 04:27:40;;;;;;;58.55;39.58;;;16.70;92.10;;;;;;5015856;28;19910;-71
2021/09/27 04:30:33;;;;;;;64.22;40.58;;;16.70;92.10;;;;;;5002802;28;20041;-74
2021/09/27 04:33:07;;;;;;;57.95;40.85;;;16.70;92.10;;;;;;5004412;28;20066;-75
2021/09/27 04:35:54;;;;;;;60.10;40.85;;;16.80;92.10;;;;;;5004135;28;20034;-75
2021/09/27 04:38:20;;;;;;;56.95;40.15;;;16.80;92.00;;;;;;5004501;28;20042;-75
2021/09/27 04:41:05;;;;;;;62.67;42.65;;;16.80;92.00;;;;;;5008513;28;20022;-75
2021/09/27 04:44:08;;;;;;;61.80;43.28;;;16.90;92.00;;;;;;5022162;28;20034;-76
2021/09/27 04:46:44;;;;;;;58.10;40.55;;;16.90;91.90;;;;;;5007087;28;20015;-76
2021/09/27 04:49:22;;;;;;;56.53;42.55;;;16.90;91.80;;;;;;5003066;28;20026;-73
2021/09/27 04:51:54;;;;;;;56.55;41.08;;;17.00;91.80;;;;;;5008069;28;20069;-75
2021/09/27 04:54:38;;;;;;;62.97;42.85;;;17.00;91.70;;;;;;5002504;28;20019;-74
2021/09/27 04:57:10;;;;;;;55.58;42.08;;;17.00;91.70;;;;;;4996768;28;20116;-76
2021/09/27 04:59:50;;;;;;;53.95;39.53;;;17.00;91.70;;;;;;5019065;28;20026;-76
2021/09/27 05:02:40;;;;;;;57.58;41.00;;;17.00;91.70;;;;;;5002268;28;20025;-72
2021/09/27 05:05:17;;;;;;;54.00;38.00;;;17.00;91.60;;;;;;5006320;28;20022;-76
2021/09/27 05:08:33;;;;;;;53.20;38.08;;;17.00;91.60;;;;;;5007279;28;20026;-74
2021/09/27 05:11:31;;;;;;;48.38;36.45;;;17.00;91.50;;;;;;5005339;28;20035;-71
2021/09/27 05:14:18;;;;;;;49.55;36.63;;;17.10;91.40;;;;;;4982868;28;20039;-75
2021/09/27 05:16:59;;;;;;;51.80;35.97;;;17.00;91.40;;;;;;5006142;28;20042;-71
2021/09/27 05:19:44;;;;;;;46.22;33.78;;;17.10;91.30;;;;;;5022158;28;20378;-73
2021/09/27 05:22:47;;;;;;;46.45;35.45;;;17.00;91.40;;;;;;5021233;28;20038;-76
2021/09/27 05:25:45;;;;;;;41.72;32.17;;;17.10;91.20;;;;;;5019061;28;20078;-72
2021/09/27 05:28:26;;;;;;;44.47;33.10;;;17.10;91.20;;;;;;5024728;28;20044;-73
2021/09/27 05:31:18;;;;;;;42.17;32.58;;;17.10;91.10;;;;;;5026363;28;20049;-73
2021/09/27 05:34:02;;;;;;;40.72;30.92;;;17.10;90.90;;;;;;5011507;28;20098;-72
2021/09/27 05:36:51;;;;;;;39.45;31.05;;;17.10;90.90;;;;;;5027641;28;20044;-73
2021/09/27 05:39:42;;;;;;;43.65;32.00;;;17.10;90.90;;;;;;5020439;28;20086;-72
2021/09/27 05:42:44;;;;;;;40.55;31.23;;;17.10;90.80;;;;;;5028371;28;20014;-73
2021/09/27 05:45:47;;;;;;;38.33;30.08;;;17.10;90.70;;;;;;5022423;28;20029;-73
2021/09/27 05:48:31;;;;;;;38.40;30.20;;;17.10;90.60;;;;;;5025245;28;20056;-74
2021/09/27 05:51:06;;;;;;;40.83;32.67;;;17.10;90.60;;;;;;5035629;28;20030;-74
2021/09/27 05:53:46;;;;;;;37.80;30.70;;;17.10;90.50;;;;;;5032854;28;20098;-72
2021/09/27 05:56:32;;;;;;;36.20;30.25;;;17.10;90.50;;;;;;5028874;28;20034;-74
2021/09/27 05:59:03;;;;;;;39.85;32.15;;;17.10;90.50;;;;;;5030399;28;20045;-74
2021/09/27 06:01:38;;;;;;;39.60;32.25;;;17.00;90.50;;;;;;5030803;28;20040;-68
2021/09/27 06:04:19;;;;;;;36.65;30.88;;;17.10;90.40;;;;;;5015047;28;20047;-74
2021/09/27 06:06:53;;;;;;;36.63;31.13;;;17.10;90.30;;;;;;5013357;28;20035;-68
2021/09/27 06:09:37;;;;;;;;;;;17.10;90.40;;;;;;5010466;28;20046;-74
2021/09/27 06:12:18;;;;;;;38.63;30.25;;;17.10;90.20;;;;;;5008906;28;19898;-73
2021/09/27 06:14:44;;;;;;;37.80;28.55;;;17.10;90.10;;;;;;5007955;28;20080;-73
2021/09/27 06:17:39;;;;;;;33.55;27.15;;;17.10;90.10;;;;;;5014735;28;20046;-74
2021/09/27 06:20:10;;;;;;;31.27;25.55;;;17.10;89.90;;;;;;5011702;28;20069;-73
2021/09/27 06:22:47;;;;;;;30.25;25.15;;;17.10;89.80;;;;;;5011600;28;20021;-74
2021/09/27 06:25:37;;;;;;;28.50;23.13;;;17.10;89.70;;;;;;5003032;28;20136;-69
2021/09/27 06:28:35;;;;;;;26.55;21.90;;;17.20;89.60;;;;;;5010569;28;20030;-73
2021/09/27 06:31:23;;;;;;;26.60;20.23;;;17.20;89.40;;;;;;5001541;28;20027;-75
2021/09/27 06:33:55;;;;;;;26.75;19.85;;;17.30;89.20;;;;;;5025862;28;20046;-73
2021/09/27 06:36:25;;;;;;;23.13;18.88;;;17.30;89.10;;;;;;5007751;28;20162;-70
2021/09/27 06:38:54;;;;;;;21.50;18.42;;;17.30;89.00;;;;;;5009070;28;20039;-72
2021/09/27 06:41:22;;;;;;;24.38;17.95;;;17.30;88.90;;;;;;5005472;28;20019;-73
2021/09/27 06:43:48;;;;;;;21.63;17.67;;;17.30;88.80;;;;;;5007525;28;20125;-73
2021/09/27 06:46:15;;;;;;;23.63;16.90;;;17.30;88.70;;;;;;5010486;28;20015;-73
2021/09/27 06:48:41;;;;;;;19.58;17.15;;;17.30;88.60;;;;;;5006268;28;20039;-69
2021/09/27 06:51:07;;;;;;;20.58;17.23;;;17.30;88.60;;;;;;5008178;28;20101;-73
2021/09/27 06:53:32;;;;;;;24.20;16.30;;;17.20;88.50;;;;;;5008412;28;20078;-72
2021/09/27 06:55:59;;;;;;;18.55;16.17;;;17.30;88.40;;;;;;5006254;28;20030;-74
2021/09/27 06:58:25;;;;;;;26.20;17.33;;;17.30;88.50;;;;;;5008006;28;20105;-75
2021/09/27 07:00:53;;;;;;;19.73;15.77;;;17.30;88.30;;;;;;5009159;28;20027;-69
2021/09/27 07:03:19;;;;;;;17.63;15.00;;;17.30;88.20;;;;;;5012284;28;20043;-72
2021/09/27 07:05:45;;;;;;;18.30;14.63;;;17.30;88.20;;;;;;5016824;28;20034;-73
2021/09/27 07:08:10;;;;;;;16.95;14.40;;;17.40;88.10;;;;;;5004653;28;20030;-74
2021/09/27 07:10:36;;;;;;;16.83;13.95;;;17.40;88.00;;;;;;5005196;28;20011;-69
2021/09/27 07:13:03;;;;;;;16.83;14.52;;;17.50;87.80;;;;;;5011325;28;20038;-72
2021/09/27 07:15:28;;;;;;;16.98;13.68;;;17.50;87.60;;;;;;5005844;28;20050;-74
2021/09/27 07:17:54;;;;;;;19.33;12.88;;;17.60;87.40;;;;;;5006114;28;20037;-74
2021/09/27 07:20:25;;;;;;;16.02;13.32;;;17.70;87.20;;;;;;5005696;28;20038;-73
2021/09/27 07:22:52;;;;;;;15.52;13.05;;;17.70;86.70;;;;;;5009106;28;20049;-73
2021/09/27 07:25:18;;;;;;;17.58;13.27;;;17.70;86.50;;;;;;5010506;28;20045;-73
2021/09/27 07:27:44;;;;;;;16.58;12.77;;;17.70;86.40;;;;;;5007660;28;20015;-68
2021/09/27 07:30:11;;;;;;;16.98;13.23;;;17.70;86.20;;;;;;5004801;28;20034;-73
2021/09/27 07:32:37;;;;;;;16.02;12.35;;;17.80;86.30;;;;;;5026474;28;20021;-75
2021/09/27 07:35:04;;;;;;;17.13;12.73;;;17.80;86.00;;;;;;5005435;28;20041;-74
2021/09/27 07:37:30;;;;;;;19.83;12.55;;;17.80;85.80;;;;;;5002415;28;20019;-72
2021/09/27 07:39:56;;;;;;;15.25;11.32;;;17.80;85.60;;;;;;5011444;28;20044;-74
2021/09/27 07:42:21;;;;;;;13.95;10.55;;;17.80;85.50;;;;;;5005558;28;20049;-73
2021/09/27 07:44:47;;;;;;;15.27;10.88;;;17.90;85.40;;;;;;5005028;28;20081;-74
2021/09/27 07:47:13;;;;;;;16.50;11.32;;;18.00;85.20;;;;;;5004034;28;20041;-72
2021/09/27 07:49:38;;;;;;;15.95;10.15;;;18.10;84.80;;;;;;5005323;28;20046;-74
2021/09/27 07:52:05;;;;;;;13.50;9.35;;;18.20;84.60;;;;;;5006904;28;20023;-73
2021/09/27 07:54:30;;;;;;;12.57;9.38;;;18.10;84.10;;;;;;5007508;28;20490;-75
2021/09/27 07:56:56;;;;;;;12.38;8.95;;;18.10;84.50;;;;;;5005936;28;20069;-74
2021/09/27 07:59:22;;;;;;;13.95;9.57;;;18.30;84.00;;;;;;5003664;28;20525;-76
2021/09/27 08:01:48;;;;;;;15.85;9.68;;;18.30;83.90;;;;;;5003374;28;20102;-74
2021/09/27 08:04:15;;;;;;;13.13;9.38;;;18.30;83.90;;;;;;5004452;28;20022;-75
2021/09/27 08:06:42;;;;;;;15.82;8.68;;;18.20;83.80;;;;;;5004555;28;20077;-72
2021/09/27 08:09:09;;;;;;;13.50;8.60;;;18.20;84.10;;;;;;5003723;28;20023;-73
2021/09/27 08:11:36;;;;;;;13.05;8.65;;;18.10;83.90;;;;;;5005468;28;20564;-75
2021/09/27 08:14:01;;;;;;;13.45;8.85;;;18.10;84.10;;;;;;5003748;28;20014;-73
2021/09/27 08:16:27;;;;;;;14.00;8.45;;;18.10;84.10;;;;;;5003482;28;20053;-75
2021/09/27 08:18:53;;;;;;;13.02;8.43;;;18.10;84.30;;;;;;5005819;28;20026;-74
2021/09/27 08:21:19;;;;;;;15.20;8.30;;;18.10;84.20;;;;;;5003665;28;20034;-73
2021/09/27 08:23:45;;;;;;;13.00;8.10;;;18.10;84.20;;;;;;5006609;28;20029;-72
2021/09/27 08:26:11;;;;;;;12.13;8.02;;;18.10;83.90;;;;;;5002563;28;20066;-74
2021/09/27 08:28:40;;;;;;;12.40;7.63;;;18.10;83.70;;;;;;5004919;28;20030;-74
2021/09/27 08:31:12;;;;;;;15.95;8.15;;;18.20;83.90;;;;;;5017733;28;20044;-75
2021/09/27 08:33:39;;;;;;;13.45;8.50;;;18.20;83.50;;;;;;5025622;28;20025;-73
2021/09/27 08:36:07;;;;;;;15.35;8.23;;;18.30;83.60;;;;;;5024149;28;20038;-74
2021/09/27 08:38:37;;;;;;;14.23;8.20;;;18.30;83.70;;;;;;5024474;28;20065;-74
2021/09/27 08:41:09;;;;;;;11.45;7.57;;;18.30;84.00;;;;;;5023984;28;20038;-73
2021/09/27 08:43:44;;;;;;;14.98;7.85;;;18.30;84.20;;;;;;5022291;28;20040;-73
2021/09/27 08:46:16;;;;;;;11.57;7.53;;;18.30;84.40;;;;;;5024342;28;20030;-75
2021/09/27 08:48:48;;;;;;;14.77;8.10;;;18.30;84.50;;;;;;5024361;28;20036;-73
2021/09/27 08:51:14;;;;;;;14.93;8.00;;;18.40;84.20;;;;;;5026016;28;20030;-74
2021/09/27 08:53:44;;;;;;;10.20;6.85;;;18.40;84.50;;;;;;5024894;28;20025;-75
2021/09/27 08:56:32;;;;;;;11.38;7.30;;;18.40;84.30;;;;;;5024555;28;20037;-73
2021/09/27 08:59:19;;;;;;;11.45;6.88;;;18.50;84.20;;;;;;5024869;28;20021;-74
2021/09/27 09:02:04;;;;;;;12.90;6.97;;;18.60;83.80;;;;;;5011100;28;20093;-76
2021/09/27 09:05:05;;;;;;;12.48;7.43;;;18.60;83.30;;;;;;5005562;28;20019;-75
2021/09/27 09:07:33;;;;;;;12.38;6.78;;;18.60;83.10;;;;;;5005184;28;20025;-74
2021/09/27 09:10:05;;;;;;;13.18;6.70;;;18.60;82.60;;;;;;5004640;28;20038;-74
2021/09/27 09:12:45;;;;;;;12.60;6.68;;;18.80;82.50;;;;;;5007520;28;20048;-74
2021/09/27 09:15:26;;;;;;;10.80;6.25;;;18.80;82.40;;;;;;5007644;28;20022;-74
2021/09/27 09:17:58;;;;;;;10.57;5.22;;;18.90;82.20;;;;;;5018965;28;20022;-74
2021/09/27 09:20:50;;;;;;;8.93;6.30;;;19.00;82.00;;;;;;5010955;28;20038;-74
2021/09/27 09:23:32;;;;;;;9.73;5.38;;;19.00;81.70;;;;;;5008149;28;20041;-74
2021/09/27 09:26:01;;;;;;;12.45;5.72;;;19.00;81.10;;;;;;5009617;28;20080;-75
2021/09/27 09:28:27;;;;;;;10.63;5.57;;;19.00;81.40;;;;;;5006766;28;20035;-72
2021/09/27 09:31:07;;;;;;;14.50;5.97;;;19.10;81.30;;;;;;5008564;28;20014;-75
2021/09/27 09:33:44;;;;;;;11.48;5.90;;;19.20;81.00;;;;;;5007390;28;20045;-75
2021/09/27 09:36:14;;;;;;;7.63;5.57;;;19.40;80.90;;;;;;5007449;28;20044;-75
2021/09/27 09:38:41;;;;;;;11.10;5.40;;;19.40;80.90;;;;;;5007305;28;20038;-72
2021/09/27 09:41:08;;;;;;;10.48;5.60;;;19.40;80.50;;;;;;5009924;28;20034;-73
2021/09/27 09:43:40;;;;;;;11.40;5.50;;;19.60;80.90;;;;;;5007601;28;20031;-73
2021/09/27 09:46:14;;;;;;;9.43;5.18;;;19.60;80.30;;;;;;5022143;28;21232;-73
2021/09/27 09:49:06;;;;;;;8.27;4.82;;;19.50;80.60;;;;;;5008768;28;20129;-74
2021/09/27 09:51:42;;;;;;;8.93;5.22;;;19.50;80.30;;;;;;5010269;28;20023;-73
2021/09/27 09:54:10;;;;;;;9.45;5.20;;;19.50;80.20;;;;;;5006897;28;20060;-74
2021/09/27 09:56:40;;;;;;;9.25;4.70;;;19.50;79.70;;;;;;5009433;28;20037;-75
2021/09/27 09:59:20;;;;;;;11.30;5.30;;;19.60;80.00;;;;;;5008566;28;20042;-72
2021/09/27 10:01:49;;;;;;;7.78;4.40;;;19.60;80.40;;;;;;5009911;28;20050;-75
2021/09/27 10:04:25;;;;;;;10.00;4.63;;;19.70;80.30;;;;;;5006404;28;20030;-72
2021/09/27 10:07:25;;;;;;;8.85;4.82;;;19.60;80.40;;;;;;5010456;28;20049;-75
2021/09/27 10:10:04;;;;;;;8.13;4.25;;;19.60;81.40;;;;;;5024085;28;20061;-74
2021/09/27 10:12:50;;;;;;;8.30;4.68;;;19.70;81.50;;;;;;5014585;28;20038;-73
2021/09/27 10:15:15;;;;;;;9.95;5.18;;;19.60;81.70;;;;;;5005444;28;20042;-73
2021/09/27 10:17:41;;;;;;;16.33;5.22;;;19.60;81.90;;;;;;5009386;28;20284;-74
2021/09/27 10:20:16;;;;;;;9.32;5.50;;;19.30;82.40;;;;;;5006370;28;20141;-68
2021/09/27 10:22:56;;;;;;;8.27;4.90;;;19.10;83.00;;;;;;5008385;28;20043;-68
2021/09/27 10:25:42;;;;;;;11.40;4.95;;;19.20;83.60;;;;;;5006976;28;20041;-70
2021/09/27 10:28:12;;;;;;;11.43;5.65;;;19.10;83.90;;;;;;5012948;28;20074;-73
2021/09/27 10:30:48;;;;;;;11.20;5.25;;;19.00;84.20;;;;;;5013467;28;20053;-69
2021/09/27 10:33:18;;;;;;;9.80;5.35;;;19.00;84.80;;;;;;5013558;28;20118;-74
2021/09/27 10:35:56;;;;;;;9.77;5.72;;;18.90;85.00;;;;;;5010242;28;20049;-70
2021/09/27 10:38:45;;;;;;;7.75;5.35;;;18.70;85.50;;;;;;5006414;28;20184;-75
2021/09/27 10:41:33;;;;;;;10.15;5.70;;;18.70;85.80;;;;;;5005694;28;20042;-75
2021/09/27 10:44:12;;;;;;;10.02;5.32;;;18.60;86.50;;;;;;5008901;28;20043;-75
2021/09/27 10:46:41;;;;;;;9.18;5.53;;;18.60;86.70;;;;;;5007786;28;20035;-73
2021/09/27 10:49:16;;;;;;;8.43;5.55;;;18.40;87.20;;;;;;5008085;28;20030;-70
2021/09/27 10:51:44;;;;;;;8.40;5.50;;;18.30;87.50;;;;;;5008250;28;20030;-73
2021/09/27 10:54:36;;;;;;;9.95;6.18;;;18.10;88.00;;;;;;5006670;28;20026;-74
2021/09/27 10:57:12;;;;;;;9.65;6.05;;;18.10;88.50;;;;;;5008057;28;20046;-72
2021/09/27 10:59:59;;;;;;;11.48;5.88;;;18.10;88.80;;;;;;5009837;28;20026;-69
2021/09/27 11:02:39;;;;;;;10.25;5.70;;;18.10;88.90;;;;;;5006070;28;20103;-72
2021/09/27 11:05:47;;;;;;;8.98;5.28;;;18.00;89.10;;;;;;5006647;28;20062;-69
2021/09/27 11:08:17;;;;;;;10.25;6.60;;;18.00;89.10;;;;;;5010159;28;20034;-75
2021/09/27 11:10:48;;;;;;;11.05;5.82;;;17.90;89.20;;;;;;5024030;28;20030;-75
2021/09/27 11:13:47;;;;;;;10.85;5.82;;;18.00;89.40;;;;;;5015036;28;20090;-74
2021/09/27 11:16:23;;;;;;;8.13;5.40;;;18.00;89.10;;;;;;5018455;28;20094;-74
2021/09/27 11:19:29;;;;;;;9.40;5.43;;;18.00;89.30;;;;;;5025147;28;20014;-74
2021/09/27 11:21:55;;;;;;;9.00;5.68;;;17.90;89.60;;;;;;5014996;28;20042;-68
2021/09/27 11:24:23;;;;;;;9.45;5.45;;;17.80;89.80;;;;;;5026391;28;20874;-70
2021/09/27 11:27:01;;;;;;;8.10;5.40;;;17.90;89.90;;;;;;5018726;28;20033;-76
2021/09/27 11:29:51;;;;;;;8.63;5.32;;;17.80;89.90;;;;;;5039079;28;20034;-72
2021/09/27 11:32:23;;;;;;;7.47;5.03;;;17.90;89.90;;;;;;5007159;28;20038;-74
2021/09/27 11:35:20;;;;;;;6.70;4.22;;;17.80;89.90;;;;;;5008651;28;20061;-70
2021/09/27 11:37:46;;;;;;;6.72;4.25;;;17.70;89.90;;;;;;5026974;28;20130;-74
2021/09/27 11:40:17;;;;;;;7.78;4.03;;;17.70;89.90;;;;;;5025520;28;20227;-74
2021/09/27 11:42:43;;;;;;;7.72;4.30;;;17.70;90.00;;;;;;5026095;28;20138;-74
2021/09/27 11:45:23;;;;;;;6.78;4.05;;;17.70;90.00;;;;;;5026729;28;20293;-72
2021/09/27 11:48:31;;;;;;;6.25;4.00;;;17.70;90.10;;;;;;5027210;28;20053;-74
2021/09/27 11:51:20;;;;;;;8.18;3.35;;;17.70;90.20;;;;;;5003842;28;20031;-73
2021/09/27 11:54:13;;;;;;;6.53;3.63;;;17.70;89.90;;;;;;5006445;28;20047;-72
2021/09/27 11:56:39;;;;;;;6.15;3.50;;;17.70;90.10;;;;;;5020876;28;20041;-75
2021/09/27 11:59:11;;;;;;;7.13;4.03;;;17.70;90.00;;;;;;5005894;28;20034;-74
2021/09/27 12:01:51;;;;;;;6.38;3.97;;;17.70;90.20;;;;;;5002687;28;20030;-73
2021/09/27 12:04:50;;;;;;;7.13;4.00;;;17.80;90.20;;;;;;5005398;28;20034;-69
2021/09/27 12:07:18;;;;;;;7.75;4.18;;;17.80;90.20;;;;;;5002870;28;20061;-70
2021/09/27 12:10:07;;;;;;;6.80;3.95;;;17.80;90.10;;;;;;5002734;28;20028;-74
2021/09/27 12:12:50;;;;;;;8.63;3.90;;;17.80;90.20;;;;;;5007099;28;20026;-68
2021/09/27 12:15:25;;;;;;;6.68;3.00;;;17.80;89.30;;;;;;5006310;28;21451;-73
2021/09/27 12:17:51;;;;;;;8.10;2.50;;;17.70;88.50;;;;;;5004369;28;20996;-74
2021/09/27 12:20:24;;;;;;;7.22;2.35;;;17.50;85.90;;;;;;5004728;28;20019;-74
2021/09/27 12:22:50;;;;;;;8.60;2.60;;;17.40;84.80;;;;;;5004750;28;20097;-72
2021/09/27 12:25:21;;;;;;;7.78;2.55;;;17.30;84.80;;;;;;5006691;28;20042;-74
2021/09/27 12:27:51;;;;;;;8.73;2.30;;;17.20;84.60;;;;;;5006360;28;20030;-75
2021/09/27 12:30:19;;;;;;;7.40;2.17;;;17.10;84.30;;;;;;5004780;28;20061;-73
2021/09/27 12:32:55;;;;;;;7.00;1.95;;;17.00;84.20;;;;;;5008324;28;20026;-75
2021/09/27 12:35:37;;;;;;;12.55;3.17;;;17.00;83.10;;;;;;5006628;28;20057;-74
2021/09/27 12:38:04;;;;;;;9.57;2.20;;;17.10;83.50;;;;;;5007030;28;20034;-74
2021/09/27 12:40:44;;;;;;;13.05;3.35;;;17.10;83.60;;;;;;5006222;28;20045;-74
2021/09/27 12:43:14;;;;;;;10.88;2.53;;;17.10;83.90;;;;;;5003478;28;20034;-73
2021/09/27 12:45:46;;;;;;;12.10;2.65;;;17.20;84.00;;;;;;5022663;28;20042;-73
2021/09/27 12:48:28;;;;;;;11.93;2.15;;;17.30;83.70;;;;;;5009127;28;20050;-72
2021/09/27 12:51:05;;;;;;;15.38;3.30;;;17.60;84.30;;;;;;5010448;28;20027;-75
2021/09/27 12:54:14;;;;;;;11.82;3.50;;;17.80;84.00;;;;;;5009042;28;20039;-75
2021/09/27 12:56:39;;;;;;;9.40;2.75;;;18.10;83.80;;;;;;5022810;28;20045;-74
2021/09/27 12:59:12;;;;;;;14.55;3.47;;;18.10;82.30;;;;;;5008292;28;20037;-74
2021/09/27 13:01:43;;;;;;;12.60;3.60;;;18.10;81.70;;;;;;5010178;28;20023;-75
2021/09/27 13:04:38;;;;;;;11.43;3.45;;;18.30;82.10;;;;;;5009346;28;20023;-71
2021/09/27 13:07:10;;;;;;;16.90;3.30;;;18.40;82.40;;;;;;5012081;28;21005;-72
2021/09/27 13:09:53;;;;;;;15.30;3.00;;;18.40;81.40;;;;;;5008617;28;20039;-74
2021/09/27 13:12:32;;;;;;;15.45;3.65;;;18.30;80.40;;;;;;5008340;28;20061;-74
2021/09/27 13:15:13;;;;;;;14.85;3.70;;;18.40;81.10;;;;;;5009452;28;20065;-74
2021/09/27 13:17:57;;;;;;;16.13;3.80;;;18.40;80.90;;;;;;5009987;28;20050;-72
2021/09/27 13:20:33;;;;;;;13.80;3.17;;;18.40;79.20;;;;;;5008276;28;20053;-72
2021/09/27 13:23:00;;;;;;;10.80;2.20;;;18.30;78.00;;;;;;5010902;28;20278;-75
2021/09/27 13:25:31;;;;;;;11.55;2.78;;;18.30;78.40;;;;;;5008881;28;20034;-70